Flight Track Log - Related Links

Times and Time Zones

All times are in EDT time to prevent confusion due to time zone crossing. See the AAL1326 flight status page for this flight to view local times or setup timezone preferences in your user account.


Time Position Orientation Groundspeed Altitude Reporting Facility
EDT Latitude Longitude Course Direction KTS MPH feet Rate Location/Type
Mon 04:51:22 PM 39.2833 -94.7167 47° Northeast 161 185 1,700  Level Kansas City TRACON
Mon 04:52:02 PM 39.2464 -94.7225 187° South 162 186 2,900 1,960 Climbing Kansas City Center
Mon 04:53:00 PM 39.4094 -94.5597 46° Northeast  Level FlightAware Approximate
Mon 04:53:03 PM 39.1917 -94.7378 192° South 207 238 5,000  Level Kansas City Center
Mon 04:54:00 PM 39.4884 -94.4693 41° Northeast  Level FlightAware Approximate
Mon 04:54:07 PM 39.1722 -94.6614 108° East 275 316 7,000  Level Kansas City Center
Mon 04:55:00 PM 39.5671 -94.3781 45° Northeast  Level FlightAware Approximate
Mon 04:55:07 PM 39.2436 -94.5900 38° Northeast 293 337 10,400  Level Kansas City Center
Mon 04:56:00 PM 39.6420 -94.2818 45° Northeast  Level FlightAware Approximate
Mon 04:56:12 PM 39.3189 -94.5256 34° Northeast 342 394 12,400  Level Kansas City Center
Mon 04:57:00 PM 39.7112 -94.1877 47° Northeast  Level FlightAware Approximate
Mon 04:57:13 PM 39.4181 -94.4378 34° Northeast 384 442 15,500  Level Kansas City Center
Mon 04:58:13 PM 39.5044 -94.3478 39° Northeast 414 476 18,300 2,557 Climbing Kansas City Center
Mon 04:59:15 PM 39.6122 -94.2311 40° Northeast 450 518 20,700 2,381 Climbing Kansas City Center
Mon 05:00:19 PM 39.7061 -94.1261 41° Northeast 465 535 23,300 2,710 Climbing Kansas City Center
Mon 05:01:19 PM 39.8150 -94.0025 41° Northeast 469 540 26,300 2,661 Climbing Kansas City Center
Mon 05:02:23 PM 39.8914 -93.8517 57° Northeast 481 554 28,800 2,274 Climbing Kansas City Center
Mon 05:03:23 PM 39.9381 -93.6911 69° East 481 554 31,000 2,016 Climbing Kansas City Center
Mon 05:04:25 PM 39.9825 -93.5275 70° East 483 556 32,900 960 Climbing Kansas City Center
Mon 05:05:28 PM 40.0275 -93.3611 70° East 489 563 33,000 48 Climbing Kansas City Center
Mon 05:06:30 PM 40.0769 -93.1914 69° East 501 577 33,000  Level Kansas City Center
Mon 05:07:30 PM 40.1275 -93.0114 70° East 503 579 33,000  Level Kansas City Center
Mon 05:08:35 PM 40.1789 -92.8181 71° East 504 580 33,000  Level Kansas City Center
Mon 05:09:35 PM 40.2242 -92.6525 70° East 504 580 33,000  Level Kansas City Center
Mon 05:10:39 PM 40.2758 -92.4619 70° East 499 574 33,000  Level Kansas City Center
Mon 05:11:40 PM 40.3236 -92.2819 71° East 506 582 33,000  Level Kansas City Center
Mon 05:12:40 PM 40.3683 -92.1114 71° East 503 579 33,000  Level Kansas City Center
Mon 05:13:45 PM 40.4136 -91.9389 71° East 504 580 33,000  Level Kansas City Center
Mon 05:14:45 PM 40.4594 -91.7647 71° East 507 583 33,000  Level Kansas City Center
Mon 05:15:47 PM 40.5153 -91.5536 71° East 513 590 33,000  Level Chicago Center
Mon 05:16:49 PM 40.5628 -91.3769 70° East 517 595 33,000  Level Chicago Center
Mon 05:17:51 PM 40.6175 -91.2194 65° Northeast 517 595 33,000  Level Chicago Center
Mon 05:18:54 PM 40.6881 -91.0103 66° East 520 598 33,000  Level Chicago Center
Mon 05:19:56 PM 40.7483 -90.8361 65° Northeast 520 598 33,000 -145 Level Chicago Center
Mon 05:20:58 PM 40.8064 -90.6619 66° East 519 597 32,700 -871 Descending Chicago Center
Mon 05:22:00 PM 40.8644 -90.4875 66° East 517 595 31,200 -1,403 Descending Chicago Center
Mon 05:23:02 PM 40.9242 -90.3083 66° East 527 606 29,800 -1,452 Descending Chicago Center
Mon 05:24:04 PM 40.9903 -90.1139 66° East 528 608 28,200 -1,403 Descending Chicago Center
Mon 05:25:06 PM 41.0442 -89.9439 67° East 537 618 26,900 -1,355 Descending Chicago Center
Mon 05:26:08 PM 41.1047 -89.7600 66° East 540 621 25,400 -1,742 Descending Chicago Center
Mon 05:27:10 PM 41.1750 -89.5475 66° East 524 603 23,300 -2,177 Descending Chicago Center
Mon 05:28:12 PM 41.2400 -89.3903 61° Northeast 491 565 20,900 -2,304 Descending Chicago Center
Mon 05:29:15 PM 41.3006 -89.2422 61° Northeast 460 529 18,500 -2,352 Descending Chicago Center
Mon 05:30:17 PM 41.3553 -89.0992 63° Northeast 433 498 16,000 -2,371 Descending Chicago Center
Mon 05:31:19 PM 41.4108 -88.9617 62° Northeast 425 489 13,600 -2,274 Descending Chicago Center
Mon 05:32:21 PM 41.4644 -88.8272 62° Northeast 416 479 11,300 -1,258 Descending Chicago Center
Mon 05:33:23 PM 41.5242 -88.6742 62° Northeast 395 455 11,000 -145 Descending Chicago Center
Mon 05:34:25 PM 41.5753 -88.5475 62° Northeast 390 449 11,000  Level Chicago Center
Mon 05:35:27 PM 41.6308 -88.4261 58° Northeast 385 443 11,000  Level Chicago Center
Mon 05:36:29 PM 41.6981 -88.3147 51° Northeast 383 441 11,000 -387 Level Chicago Center
Mon 05:37:31 PM 41.7608 -88.2050 52° Northeast 376 433 10,200 -968 Descending Chicago Center
Mon 05:38:33 PM 41.8158 -88.1119 52° Northeast 332 382 9,000 -1,440 Descending Chicago Center
Mon 05:39:36 PM 41.8769 -88.0011 53° Northeast 312 359 7,200 -1,277 Descending Chicago Center
Mon 05:40:07 PM 41.8833 -87.9333 83° East 318 366 7,000 -141 Descending Chicago TRACON
Mon 05:41:01 PM 41.8833 -87.8500 90° East 287 330 7,000 -500 Level Chicago TRACON
Mon 05:42:07 PM 41.8833 -87.7333 90° East 263 303 6,000 -1,000 Descending Chicago TRACON
Mon 05:43:07 PM 41.9167 -87.6667 56° Northeast 248 285 4,900 -1,300 Descending Chicago TRACON
Mon 05:44:07 PM 41.9500 -87.7000 323° Northwest 179 206 3,400 -1,500 Descending Chicago TRACON

Login

Don't have an account? Register now (free) for customized features, flight alerts, and more!